Welcome to Northern Hawkes Bay. New Zealand.
PWS Header
      nz Flag



Hit Counter


W3C Valid W3C Valid logo


    Wairoa

Select any of the Stations below to visit their websites.










Historic Data from Weather Underground
Select the location of interest below. Wairoa is the default. Please have patience, this Data is slow to load in.
Northern Hawkes Bay Historical Data
Daily Summary for April 23, 2017 Units:  Metric    English   Both
« Previous Day
Next Day »
Daily Weekly Monthly Yearly Custom
  High: Low: Average:
Temperature: 22.5 °C 6.7 °C 13.1 °C
Dew Point: 14.6 °C 6.4 °C 10.6 °C
Humidity: 99% 58% 87%
Wind Speed: 11.1km/h 0.0km/h 3km/h
Wind Gust: 17.2km/h - -
Wind- - SW
Pressure: 1030.4 hPa 1020.5 hPa -
Precipitation: 0.0 mm    
Historical Graphs
 
 
Tabular Data for April 23, 2017
Time Temperature Dew Point Pressure Wind Wind Speed Wind Gust Humidity Rainfall Rate (Hourly) solar
00:02 8.4 °C 8.3 °C 1030.4 hPa Calm   8.7 km/h 99% 0.0 mm 0 W/m2
00:07 8.4 °C 8.3 °C 1030.0 hPa Calm   5.0 km/h 99% 0.0 mm 0 W/m2
00:12 8.3 °C 8.2 °C 1030.4 hPa Calm     99% 0.0 mm 0 W/m2
00:17 8.3 °C 8.2 °C 1030.0 hPa Calm   6.1 km/h 99% 0.0 mm 0 W/m2
00:22 8.2 °C 8.1 °C 1030.0 hPa Calm   6.1 km/h 99% 0.0 mm 0 W/m2
00:27 8.1 °C 7.9 °C 1030.0 hPa North 3.5 km/h 6.1 km/h 99% 0.0 mm 0 W/m2
00:32 8.1 °C 7.9 °C 1030.0 hPa Calm   7.2 km/h 99% 0.0 mm 0 W/m2
00:37 8.1 °C 7.9 °C 1030.0 hPa Calm   7.2 km/h 99% 0.0 mm 0 W/m2
00:42 8.1 °C 7.9 °C 1030.0 hPa Calm   6.1 km/h 99% 0.0 mm 0 W/m2
00:47 8.1 °C 7.9 °C 1030.0 hPa North 2.6 km/h 6.1 km/h 99% 0.0 mm 0 W/m2
00:52 8.0 °C 7.8 °C 1030.0 hPa Calm   5.0 km/h 99% 0.0 mm 0 W/m2
00:57 7.9 °C 7.4 °C 1030.0 hPa Calm   5.0 km/h 97% 0.0 mm 0 W/m2
01:02 7.8 °C 7.3 °C 1030.0 hPa Calm     97% 0.0 mm 0 W/m2
01:07 7.9 °C 7.4 °C 1029.7 hPa Calm     97% 0.0 mm 0 W/m2
01:12 7.9 °C 7.4 °C 1029.7 hPa Calm     97% 0.0 mm 0 W/m2
01:17 7.9 °C 7.4 °C 1029.7 hPa Calm     97% 0.0 mm 0 W/m2
01:22 7.9 °C 7.4 °C 1029.7 hPa Calm     97% 0.0 mm 0 W/m2
01:27 7.9 °C 7.4 °C 1029.7 hPa NNW 3.5 km/h 6.1 km/h 97% 0.0 mm 0 W/m2
01:32 7.9 °C 7.4 °C 1029.7 hPa Calm   6.1 km/h 97% 0.0 mm 0 W/m2
01:37 7.9 °C 7.4 °C 1029.7 hPa NW 3.5 km/h 6.1 km/h 97% 0.0 mm 0 W/m2
01:42 7.9 °C 7.4 °C 1029.7 hPa NW 3.5 km/h 6.1 km/h 97% 0.0 mm 0 W/m2
01:47 8.0 °C 7.8 °C 1029.7 hPa NW 2.6 km/h 7.2 km/h 99% 0.0 mm 0 W/m2
01:52 8.1 °C 7.9 °C 1029.7 hPa NNW 1.1 km/h 7.2 km/h 99% 0.0 mm 0 W/m2
01:57 8.1 °C 7.9 °C 1029.7 hPa Calm   7.2 km/h 99% 0.0 mm 0 W/m2
02:02 8.2 °C 8.1 °C 1029.7 hPa North 3.5 km/h 6.1 km/h 99% 0.0 mm 0 W/m2
02:07 8.4 °C 8.3 °C 1029.7 hPa North 5.0 km/h 9.7 km/h 99% 0.0 mm 0 W/m2
02:12 8.5 °C 8.3 °C 1029.7 hPa Calm   9.7 km/h 99% 0.0 mm 0 W/m2
02:17 8.4 °C 8.3 °C 1030.0 hPa Calm   7.2 km/h 99% 0.0 mm 0 W/m2
02:22 8.4 °C 8.3 °C 1029.7 hPa Calm     99% 0.0 mm 0 W/m2
02:27 8.4 °C 8.3 °C 1029.7 hPa Calm   1.1 km/h 99% 0.0 mm 0 W/m2
02:32 8.2 °C 8.1 °C 1029.3 hPa Calm   3.5 km/h 99% 0.0 mm 0 W/m2
02:37 8.2 °C 8.1 °C 1029.7 hPa NNW 3.5 km/h 7.2 km/h 99% 0.0 mm 0 W/m2
02:42 8.4 °C 8.3 °C 1029.7 hPa NNW 5.0 km/h 8.7 km/h 99% 0.0 mm 0 W/m2
02:47 8.4 °C 8.3 °C 1029.3 hPa North 5.0 km/h 8.7 km/h 99% 0.0 mm 0 W/m2
02:52 8.5 °C 8.3 °C 1029.3 hPa North 5.0 km/h 11.1 km/h 99% 0.0 mm 0 W/m2
02:57 8.5 °C 8.3 °C 1029.3 hPa North 2.6 km/h 11.1 km/h 99% 0.0 mm 0 W/m2
03:02 8.4 °C 8.3 °C 1029.0 hPa Calm   9.7 km/h 99% 0.0 mm 0 W/m2
03:19 8.1 °C 7.9 °C 1028.7 hPa NW 3.5 km/h 8.7 km/h 99% 0.0 mm 0 W/m2
03:25 8.0 °C 7.8 °C 1028.7 hPa NW 7.2 km/h 8.7 km/h 99% 0.0 mm 0 W/m2
03:30 7.9 °C 7.4 °C 1028.7 hPa NW 5.0 km/h 8.7 km/h 97% 0.0 mm 0 W/m2
03:36 7.9 °C 7.4 °C 1028.7 hPa NNW 1.1 km/h 8.7 km/h 97% 0.0 mm 0 W/m2
03:41 7.8 °C 7.3 °C 1028.3 hPa NW 5.0 km/h 8.7 km/h 97% 0.0 mm 0 W/m2
03:58 7.7 °C 7.3 °C 1028.3 hPa NNW 7.2 km/h 9.7 km/h 97% 0.0 mm 0 W/m2
04:03 7.6 °C 7.2 °C 1028.3 hPa NNW 5.0 km/h 9.7 km/h 97% 0.0 mm 0 W/m2
04:08 7.5 °C 7.1 °C 1028.3 hPa NNW 7.2 km/h 11.1 km/h 97% 0.0 mm 0 W/m2
04:14 7.5 °C 7.1 °C 1028.3 hPa NW 5.0 km/h 11.1 km/h 97% 0.0 mm 0 W/m2
04:19 7.4 °C 6.9 °C 1028.3 hPa Calm   9.7 km/h 97% 0.0 mm 0 W/m2
04:24 7.3 °C 6.8 °C 1028.0 hPa NNW 6.1 km/h 9.7 km/h 97% 0.0 mm 0 W/m2
04:29 7.3 °C 6.8 °C 1028.3 hPa NNW 5.0 km/h 9.7 km/h 97% 0.0 mm 0 W/m2
04:34 7.3 °C 6.8 °C 1028.3 hPa NNW 7.2 km/h 9.7 km/h 97% 0.0 mm 0 W/m2
04:39 7.2 °C 6.8 °C 1028.3 hPa NNW 5.0 km/h 9.7 km/h 97% 0.0 mm 0 W/m2
04:44 7.2 °C 6.8 °C 1028.3 hPa North 5.0 km/h 11.1 km/h 97% 0.0 mm 0 W/m2
04:49 7.1 °C 6.7 °C 1028.3 hPa NNW 3.5 km/h 11.1 km/h 97% 0.0 mm 0 W/m2
04:54 7.0 °C 6.6 °C 1028.0 hPa NW 7.2 km/h 11.1 km/h 97% 0.0 mm 0 W/m2
04:59 7.0 °C 6.6 °C 1028.0 hPa NW 7.2 km/h 11.1 km/h 97% 0.0 mm 0 W/m2
05:04 6.8 °C 6.5 °C 1028.3 hPa NNW 6.1 km/h 12.2 km/h 98% 0.0 mm 0 W/m2
05:09 6.7 °C 6.4 °C 1028.3 hPa NNW 3.5 km/h 12.2 km/h 98% 0.0 mm 0 W/m2
05:14 6.7 °C 6.4 °C 1028.3 hPa NW 3.5 km/h 9.7 km/h 98% 0.0 mm 0 W/m2
05:19 6.8 °C 6.5 °C 1028.0 hPa NW 6.1 km/h 11.1 km/h 98% 0.0 mm 0 W/m2
05:20 6.8 °C 6.5 °C 1028.0 hPa NNW 2.6 km/h 11.1 km/h 98% 0.0 mm 0 W/m2
05:25 6.9 °C 6.6 °C 1028.3 hPa Calm   11.1 km/h 98% 0.0 mm 0 W/m2
05:30 7.0 °C 6.6 °C 1028.3 hPa Calm   6.1 km/h 97% 0.0 mm 0 W/m2
05:36 7.1 °C 6.7 °C 1028.3 hPa NW 3.5 km/h 7.2 km/h 97% 0.0 mm 0 W/m2
05:41 7.2 °C 6.8 °C 1028.3 hPa NNW 5.0 km/h 8.7 km/h 97% 0.0 mm 0 W/m2
05:46 7.2 °C 6.8 °C 1028.3 hPa NNW 3.5 km/h 8.7 km/h 97% 0.0 mm 0 W/m2
05:51 7.3 °C 6.8 °C 1028.3 hPa NW 5.0 km/h 9.7 km/h 97% 0.0 mm 0 W/m2
05:56 7.3 °C 6.8 °C 1028.3 hPa Calm   9.7 km/h 97% 0.0 mm 0 W/m2
06:01 7.3 °C 6.8 °C 1028.3 hPa NNW 3.5 km/h 7.2 km/h 97% 0.0 mm 0 W/m2
06:06 7.3 °C 6.8 °C 1028.3 hPa NNW 6.1 km/h 11.1 km/h 97% 0.0 mm 0 W/m2
06:11 7.4 °C 6.9 °C 1028.3 hPa NNW 5.0 km/h 11.1 km/h 97% 0.0 mm 0 W/m2
06:16 7.4 °C 6.9 °C 1028.0 hPa NNW 7.2 km/h 11.1 km/h 97% 0.0 mm 0 W/m2
06:21 7.3 °C 6.8 °C 1028.0 hPa NNW 6.1 km/h 12.2 km/h 97% 0.0 mm 0 W/m2
06:26 7.2 °C 6.8 °C 1028.0 hPa NNW 5.0 km/h 12.2 km/h 97% 0.0 mm 0 W/m2
06:31 7.2 °C 6.8 °C 1028.0 hPa NNW 2.6 km/h 9.7 km/h 97% 0.0 mm 0 W/m2
06:36 7.1 °C 6.7 °C 1028.0 hPa NNW 3.5 km/h 8.7 km/h 97% 0.0 mm 0 W/m2
06:41 7.0 °C 6.6 °C 1028.0 hPa NNW 5.0 km/h 9.7 km/h 97% 0.0 mm 1 W/m2
06:46 7.0 °C 6.6 °C 1028.0 hPa North 6.1 km/h 11.1 km/h 97% 0.0 mm 4 W/m2
06:51 7.0 °C 6.6 °C 1028.0 hPa NNW 3.5 km/h 11.1 km/h 97% 0.0 mm 6 W/m2
06:56 7.0 °C 6.6 °C 1028.0 hPa NNW 7.2 km/h 11.1 km/h 97% 0.0 mm 10 W/m2
07:01 6.9 °C 6.6 °C 1028.0 hPa NNW 3.5 km/h 11.1 km/h 98% 0.0 mm 13 W/m2
07:06 7.0 °C 6.6 °C 1028.0 hPa NNW 5.0 km/h 9.7 km/h 97% 0.0 mm 17 W/m2
07:11 7.1 °C 6.7 °C 1028.0 hPa NNW 7.2 km/h 11.1 km/h 97% 0.0 mm 52 W/m2
07:16 7.3 °C 6.8 °C 1028.0 hPa NNW 3.5 km/h 11.1 km/h 97% 0.0 mm 58 W/m2
07:21 7.5 °C 7.1 °C 1028.0 hPa NNW 3.5 km/h 11.1 km/h 97% 0.0 mm 85 W/m2
07:26 7.8 °C 7.3 °C 1028.3 hPa North 3.5 km/h 9.7 km/h 97% 0.0 mm 95 W/m2
07:31 7.9 °C 7.4 °C 1028.3 hPa NNW 6.1 km/h 11.1 km/h 97% 0.0 mm 112 W/m2
07:36 8.1 °C 7.9 °C 1028.0 hPa NNW 6.1 km/h 11.1 km/h 99% 0.0 mm 127 W/m2
07:41 8.4 °C 8.3 °C 1028.3 hPa NNW 6.1 km/h 12.2 km/h 99% 0.0 mm 141 W/m2
07:46 8.6 °C 8.4 °C 1028.0 hPa NNW 9.7 km/h 13.4 km/h 99% 0.3 mm 157 W/m2
07:51 8.7 °C 8.6 °C 1028.0 hPa NNW 3.5 km/h 13.4 km/h 99% 0.3 mm 166 W/m2
07:56 9.0 °C 8.8 °C 1028.0 hPa NNW 3.5 km/h 13.4 km/h 99% 0.3 mm 183 W/m2
08:01 9.2 °C 9.1 °C 1028.0 hPa NNW 8.7 km/h 12.2 km/h 99% 0.3 mm 196 W/m2
08:06 9.4 °C 9.3 °C 1028.3 hPa NNW 8.7 km/h 12.2 km/h 99% 0.3 mm 209 W/m2
08:11 9.8 °C 9.5 °C 1028.3 hPa NNW 5.0 km/h 13.4 km/h 98% 0.3 mm 224 W/m2
08:16 10.1 °C 9.3 °C 1028.3 hPa North 3.5 km/h 13.4 km/h 95% 0.3 mm 209 W/m2
08:21 10.3 °C 9.4 °C 1028.3 hPa NNW 5.0 km/h 11.1 km/h 94% 0.3 mm 254 W/m2
08:26 10.4 °C 9.3 °C 1028.3 hPa NNW 8.7 km/h 13.4 km/h 93% 0.3 mm 271 W/m2
08:31 10.5 °C 9.1 °C 1028.3 hPa NNW 8.7 km/h 14.8 km/h 91% 0.3 mm 285 W/m2
08:36 10.9 °C 9.5 °C 1028.3 hPa North 8.7 km/h 14.8 km/h 91% 0.3 mm 298 W/m2
08:41 11.0 °C 9.3 °C 1028.3 hPa North 5.0 km/h 13.4 km/h 89% 0.3 mm 306 W/m2
08:46 11.3 °C 9.4 °C 1028.3 hPa NW 6.1 km/h 12.2 km/h 88% 0.0 mm 317 W/m2
08:51 11.6 °C 9.5 °C 1028.3 hPa NNW 7.2 km/h 17.2 km/h 87% 0.0 mm 324 W/m2
08:56 11.6 °C 9.2 °C 1028.7 hPa NNW 8.7 km/h 17.2 km/h 85% 0.0 mm 330 W/m2
09:01 11.9 °C 9.6 °C 1028.7 hPa NNW 5.0 km/h 14.8 km/h 86% 0.0 mm 338 W/m2
09:06 12.3 °C 9.5 °C 1028.3 hPa NNW 11.1 km/h 15.8 km/h 83% 0.0 mm 342 W/m2
09:11 12.3 °C 9.5 °C 1028.3 hPa NNW 7.2 km/h 15.8 km/h 83% 0.0 mm 344 W/m2
09:16 12.6 °C 9.9 °C 1028.3 hPa NNW 5.0 km/h 14.8 km/h 84% 0.0 mm 353 W/m2
09:21 12.9 °C 10.1 °C 1028.3 hPa NW 8.7 km/h 12.2 km/h 83% 0.0 mm 355 W/m2
09:26 13.1 °C 10.4 °C 1028.3 hPa NW 7.2 km/h 12.2 km/h 84% 0.0 mm 358 W/m2
09:31 13.3 °C 10.7 °C 1028.0 hPa Calm   12.2 km/h 84% 0.0 mm 349 W/m2
09:36 13.6 °C 10.8 °C 1028.0 hPa NNW 6.1 km/h 12.2 km/h 83% 0.0 mm 134 W/m2
09:41 13.7 °C 10.9 °C 1028.0 hPa NNW 6.1 km/h 12.2 km/h 83% 0.0 mm 84 W/m2
09:46 14.1 °C 11.3 °C 1028.0 hPa NNW 3.5 km/h 12.2 km/h 83% 0.0 mm 75 W/m2
09:51 14.4 °C 11.2 °C 1028.0 hPa NNW 7.2 km/h 9.7 km/h 81% 0.0 mm 70 W/m2
09:56 14.9 °C 11.7 °C 1028.0 hPa NW 5.0 km/h 9.7 km/h 81% 0.0 mm 69 W/m2
10:01 14.9 °C 11.3 °C 1027.7 hPa NW 3.5 km/h 9.7 km/h 79% 0.0 mm 69 W/m2
10:06 15.2 °C 11.4 °C 1027.7 hPa NW 5.0 km/h 9.7 km/h 78% 0.0 mm 71 W/m2
10:11 15.6 °C 12.0 °C 1027.7 hPa NW 5.0 km/h 9.7 km/h 79% 0.0 mm 74 W/m2
10:16 15.7 °C 11.9 °C 1028.0 hPa NW 5.0 km/h 9.7 km/h 78% 0.0 mm 80 W/m2
10:21 16.0 °C 11.8 °C 1027.7 hPa NW 5.0 km/h 9.7 km/h 76% 0.0 mm 87 W/m2
10:26 16.4 °C 12.4 °C 1027.7 hPa NW 1.1 km/h 9.7 km/h 77% 0.0 mm 198 W/m2
10:31 16.9 °C 12.7 °C 1027.7 hPa Calm   8.7 km/h 76% 0.0 mm 340 W/m2
10:36 17.9 °C 13.0 °C 1027.7 hPa Calm   6.1 km/h 73% 0.0 mm 375 W/m2
10:41 18.4 °C 13.1 °C 1027.3 hPa Calm     71% 0.0 mm 397 W/m2
10:46 19.9 °C 14.3 °C 1027.3 hPa Calm     70% 0.0 mm 414 W/m2
10:51 20.3 °C 13.8 °C 1027.3 hPa Calm     66% 0.0 mm 433 W/m2
10:56 20.9 °C 13.8 °C 1027.3 hPa SE 5.0 km/h 7.2 km/h 64% 0.0 mm 430 W/m2
11:01 20.1 °C 13.3 °C 1027.3 hPa Calm   7.2 km/h 65% 0.0 mm 87 W/m2
11:06 19.3 °C 13.3 °C 1027.3 hPa SSE 2.6 km/h 11.1 km/h 68% 0.0 mm 129 W/m2
11:11 18.8 °C 13.2 °C 1027.0 hPa SSE 2.6 km/h 11.1 km/h 70% 0.0 mm 444 W/m2
11:16 18.5 °C 13.4 °C 1027.3 hPa SSE 2.6 km/h 8.7 km/h 72% 0.0 mm 118 W/m2
11:21 18.7 °C 13.8 °C 1027.3 hPa Calm   8.7 km/h 73% 0.0 mm 463 W/m2
11:26 18.7 °C 13.3 °C 1027.3 hPa ESE 2.6 km/h 6.1 km/h 71% 0.0 mm 285 W/m2
11:31 18.5 °C 13.4 °C 1027.0 hPa Calm   6.1 km/h 72% 0.0 mm 162 W/m2
11:36 18.7 °C 13.8 °C 1027.0 hPa Calm   6.1 km/h 73% 0.0 mm 444 W/m2
11:41 19.2 °C 13.8 °C 1026.6 hPa Calm   6.1 km/h 71% 0.0 mm 469 W/m2
11:46 20.2 °C 14.1 °C 1026.6 hPa SE 3.5 km/h 6.1 km/h 68% 0.0 mm 494 W/m2
11:51 19.8 °C 13.7 °C 1026.6 hPa ESE 5.0 km/h 7.2 km/h 68% 0.0 mm 176 W/m2
11:56 19.1 °C 13.3 °C 1026.3 hPa Calm   7.2 km/h 69% 0.0 mm 431 W/m2
12:01 19.2 °C 13.6 °C 1026.3 hPa SSE 3.5 km/h 7.2 km/h 70% 0.0 mm 456 W/m2
12:06 20.0 °C 13.7 °C 1026.3 hPa SE 3.5 km/h 7.2 km/h 67% 0.0 mm 477 W/m2
12:11 19.5 °C 13.4 °C 1026.3 hPa SSE 5.0 km/h 9.7 km/h 68% 0.0 mm 150 W/m2
12:16 18.5 °C 12.9 °C 1026.0 hPa South 3.5 km/h 12.2 km/h 70% 0.0 mm 157 W/m2
12:21 18.4 °C 13.1 °C 1026.0 hPa SSE 2.6 km/h 12.2 km/h 71% 0.0 mm 136 W/m2
12:26 18.4 °C 13.1 °C 1025.6 hPa Calm   7.2 km/h 71% 0.0 mm 529 W/m2
12:31 19.7 °C 13.9 °C 1025.6 hPa SE 3.5 km/h 8.7 km/h 69% 0.0 mm 505 W/m2
12:36 20.1 °C 13.6 °C 1025.6 hPa SE 8.7 km/h 11.1 km/h 66% 0.0 mm 482 W/m2
12:41 20.2 °C 13.7 °C 1025.6 hPa SE 5.0 km/h 11.1 km/h 66% 0.0 mm 531 W/m2
12:46 20.5 °C 13.4 °C 1025.3 hPa ESE 5.0 km/h 13.4 km/h 64% 0.0 mm 574 W/m2
12:51 20.8 °C 13.8 °C 1025.3 hPa SE 6.1 km/h 13.4 km/h 64% 0.0 mm 216 W/m2
12:56 20.1 °C 13.1 °C 1025.3 hPa SSE 2.6 km/h 11.1 km/h 64% 0.0 mm 146 W/m2
13:01 19.7 °C 13.4 °C 1025.3 hPa SSE 5.0 km/h 11.1 km/h 67% 0.0 mm 186 W/m2
13:06 19.6 °C 13.3 °C 1025.3 hPa ESE 5.0 km/h 8.7 km/h 67% 0.0 mm 443 W/m2
13:11 20.6 °C 13.8 °C 1024.9 hPa East 7.2 km/h 9.7 km/h 65% 0.0 mm 337 W/m2
13:16 21.2 °C 13.7 °C 1024.9 hPa East 3.5 km/h 9.7 km/h 62% 0.0 mm 283 W/m2
13:21 22.1 °C 13.7 °C 1024.9 hPa ESE 5.0 km/h 9.7 km/h 59% 0.0 mm 185 W/m2
13:26 22.2 °C 13.6 °C 1024.9 hPa SE 5.0 km/h 8.7 km/h 58% 0.0 mm 140 W/m2
13:31 21.8 °C 13.4 °C 1024.9 hPa ESE 7.2 km/h 12.2 km/h 59% 0.0 mm 290 W/m2
13:36 21.3 °C 13.7 °C 1024.9 hPa ESE 5.0 km/h 12.2 km/h 62% 0.0 mm 337 W/m2
13:41 21.5 °C 13.9 °C 1024.6 hPa ESE 9.7 km/h 13.4 km/h 62% 0.0 mm 317 W/m2
13:46 20.7 °C 13.7 °C 1024.6 hPa ESE 5.0 km/h 13.4 km/h 64% 0.0 mm 203 W/m2
13:51 20.3 °C 13.3 °C 1024.6 hPa ESE 5.0 km/h 12.2 km/h 64% 0.0 mm 113 W/m2
13:56 19.6 °C 13.3 °C 1024.6 hPa ESE 6.1 km/h 12.2 km/h 67% 0.0 mm 299 W/m2
14:01 19.4 °C 13.3 °C 1024.6 hPa ESE 7.2 km/h 9.7 km/h 68% 0.0 mm 147 W/m2
14:06 19.6 °C 14.0 °C 1024.3 hPa ESE 5.0 km/h 12.2 km/h 70% 0.0 mm 262 W/m2
14:11 20.5 °C 13.9 °C 1024.3 hPa ESE 7.2 km/h 13.4 km/h 66% 0.0 mm 204 W/m2
14:16 20.4 °C 13.6 °C 1024.3 hPa ESE 6.1 km/h 13.4 km/h 65% 0.0 mm 203 W/m2
14:21 20.3 °C 13.5 °C 1024.3 hPa East 5.0 km/h 13.4 km/h 65% 0.0 mm 199 W/m2
14:26 20.1 °C 13.6 °C 1024.3 hPa East 8.7 km/h 13.4 km/h 66% 0.0 mm 136 W/m2
14:31 19.8 °C 13.7 °C 1023.9 hPa East 6.1 km/h 13.4 km/h 68% 0.0 mm 170 W/m2
14:36 20.1 °C 13.6 °C 1023.9 hPa East 6.1 km/h 13.4 km/h 66% 0.0 mm 144 W/m2
14:41 19.4 °C 13.6 °C 1023.9 hPa East 3.5 km/h 12.2 km/h 69% 0.0 mm 104 W/m2
14:47 20.8 °C 14.4 °C 1023.9 hPa ESE 2.6 km/h 7.2 km/h 67% 0.0 mm 91 W/m2
14:52 21.7 °C 14.6 °C 1023.9 hPa ESE 1.1 km/h 7.2 km/h 64% 0.0 mm 83 W/m2
14:57 21.6 °C 14.3 °C 1023.6 hPa ESE 3.5 km/h 8.7 km/h 63% 0.0 mm 80 W/m2
15:02 21.7 °C 14.4 °C 1023.6 hPa ESE 7.2 km/h 9.7 km/h 63% 0.0 mm 83 W/m2
15:07 21.5 °C 14.2 °C 1023.6 hPa Calm   9.7 km/h 63% 0.0 mm 109 W/m2
15:12 22.1 °C 14.2 °C 1023.6 hPa ESE 5.0 km/h 9.7 km/h 61% 0.0 mm 202 W/m2
15:17 22.4 °C 14.5 °C 1023.6 hPa East 5.0 km/h 8.7 km/h 61% 0.0 mm 229 W/m2
15:22 22.5 °C 14.6 °C 1023.6 hPa East 6.1 km/h 8.7 km/h 61% 0.0 mm 242 W/m2
15:27 22.1 °C 14.2 °C 1023.2 hPa East 6.1 km/h 9.7 km/h 61% 0.0 mm 205 W/m2
15:32 21.8 °C 14.2 °C 1023.2 hPa East 5.0 km/h 9.7 km/h 62% 0.0 mm 176 W/m2
15:37 21.7 °C 14.4 °C 1023.2 hPa East 3.5 km/h 8.7 km/h 63% 0.0 mm 160 W/m2
15:42 21.6 °C 14.0 °C 1023.2 hPa East 6.1 km/h 8.7 km/h 62% 0.0 mm 138 W/m2
15:47 21.4 °C 13.8 °C 1023.2 hPa East 7.2 km/h 12.2 km/h 62% 0.0 mm 136 W/m2
15:52 21.2 °C 13.7 °C 1023.2 hPa East 5.0 km/h 12.2 km/h 62% 0.0 mm 119 W/m2
15:57 21.3 °C 13.7 °C 1022.9 hPa ENE 6.1 km/h 12.2 km/h 62% 0.0 mm 112 W/m2
16:02 21.2 °C 13.4 °C 1022.9 hPa ENE 6.1 km/h 11.1 km/h 61% 0.0 mm 100 W/m2
16:07 21.1 °C 13.6 °C 1022.9 hPa East 5.0 km/h 9.7 km/h 62% 0.0 mm 87 W/m2
16:23 20.1 °C 12.8 °C 1022.9 hPa East 8.7 km/h 13.4 km/h 63% 0.0 mm 72 W/m2
16:28 19.9 °C 13.1 °C 1022.6 hPa East 8.7 km/h 14.8 km/h 65% 0.0 mm 69 W/m2
16:33 19.8 °C 13.3 °C 1022.6 hPa East 8.7 km/h 15.8 km/h 66% 0.0 mm 67 W/m2
16:38 19.6 °C 13.1 °C 1022.6 hPa East 9.7 km/h 15.8 km/h 66% 0.0 mm 51 W/m2
16:43 19.4 °C 13.1 °C 1022.9 hPa ENE 3.5 km/h 15.8 km/h 67% 0.0 mm 45 W/m2
16:48 19.1 °C 13.1 °C 1022.6 hPa East 5.0 km/h 14.8 km/h 68% 0.0 mm 34 W/m2
16:53 18.8 °C 13.2 °C 1022.6 hPa East 5.0 km/h 12.2 km/h 70% 0.0 mm 30 W/m2
16:58 18.6 °C 13.2 °C 1022.9 hPa East 1.1 km/h 12.2 km/h 71% 0.0 mm 27 W/m2
17:03 18.5 °C 13.2 °C 1022.6 hPa Calm   8.7 km/h 71% 0.0 mm 20 W/m2
17:08 18.1 °C 13.0 °C 1022.6 hPa Calm   5.0 km/h 72% 0.0 mm 17 W/m2
17:13 18.0 °C 13.3 °C 1022.6 hPa Calm     74% 0.0 mm 14 W/m2
17:18 17.8 °C 13.3 °C 1022.6 hPa NE 2.6 km/h 3.5 km/h 75% 0.0 mm 10 W/m2
17:23 17.4 °C 13.3 °C 1022.2 hPa NE 3.5 km/h 5.0 km/h 77% 0.0 mm 7 W/m2
17:28 16.9 °C 13.8 °C 1022.2 hPa NE 8.7 km/h 11.1 km/h 82% 0.0 mm 4 W/m2
17:33 16.8 °C 13.7 °C 1022.2 hPa NE 5.0 km/h 11.1 km/h 82% 0.0 mm 2 W/m2
17:38 16.7 °C 13.6 °C 1022.2 hPa ENE 2.6 km/h 11.1 km/h 82% 0.0 mm 1 W/m2
17:43 16.6 °C 13.5 °C 1022.2 hPa Calm   8.7 km/h 82% 0.0 mm 0 W/m2
17:48 16.3 °C 13.4 °C 1022.2 hPa Calm   5.0 km/h 83% 0.0 mm 0 W/m2
17:53 16.0 °C 13.1 °C 1022.2 hPa Calm     83% 0.0 mm 0 W/m2
17:58 15.7 °C 13.2 °C 1022.2 hPa Calm     85% 0.0 mm 0 W/m2
18:03 15.6 °C 13.3 °C 1022.2 hPa Calm   2.6 km/h 86% 0.0 mm 0 W/m2
18:08 15.5 °C 13.3 °C 1022.2 hPa Calm   2.6 km/h 87% 0.0 mm 0 W/m2
18:13 15.3 °C 13.2 °C 1022.2 hPa Calm   1.1 km/h 87% 0.0 mm 0 W/m2
18:18 15.1 °C 12.9 °C 1022.2 hPa Calm   1.1 km/h 87% 0.0 mm 0 W/m2
18:23 14.9 °C 12.9 °C 1022.2 hPa Calm     88% 0.0 mm 0 W/m2
18:28 14.6 °C 12.8 °C 1022.2 hPa Calm     89% 0.0 mm 0 W/m2
18:33 14.5 °C 12.9 °C 1022.2 hPa Calm     90% 0.0 mm 0 W/m2
18:38 14.3 °C 12.8 °C 1022.2 hPa Calm     91% 0.0 mm 0 W/m2
18:43 14.0 °C 12.6 °C 1022.2 hPa Calm     91% 0.0 mm 0 W/m2
18:48 13.9 °C 12.8 °C 1022.2 hPa Calm     93% 0.0 mm 0 W/m2
18:53 13.7 °C 12.6 °C 1022.2 hPa Calm     93% 0.0 mm 0 W/m2
18:58 13.6 °C 12.7 °C 1022.2 hPa Calm   1.1 km/h 94% 0.0 mm 0 W/m2
19:03 13.5 °C 12.6 °C 1021.9 hPa Calm   1.1 km/h 94% 0.0 mm 0 W/m2
19:08 13.6 °C 12.8 °C 1022.2 hPa Calm     95% 0.0 mm 0 W/m2
19:13 13.6 °C 12.8 °C 1022.2 hPa Calm     95% 0.0 mm 0 W/m2
19:18 13.5 °C 12.7 °C 1021.9 hPa Calm     95% 0.0 mm 0 W/m2
19:23 13.3 °C 12.5 °C 1022.2 hPa Calm     95% 0.0 mm 0 W/m2
19:28 13.1 °C 12.3 °C 1021.9 hPa Calm     95% 0.0 mm 0 W/m2
19:33 13.0 °C 12.2 °C 1021.9 hPa Calm     95% 0.0 mm 0 W/m2
19:38 12.8 °C 12.0 °C 1021.6 hPa Calm     95% 0.0 mm 0 W/m2
19:43 12.7 °C 11.9 °C 1021.6 hPa Calm     95% 0.0 mm 0 W/m2
19:48 12.6 °C 11.8 °C 1021.9 hPa Calm     95% 0.0 mm 0 W/m2
19:53 12.4 °C 11.6 °C 1021.9 hPa Calm     95% 0.0 mm 0 W/m2
19:58 12.3 °C 11.5 °C 1021.6 hPa Calm     95% 0.0 mm 0 W/m2
20:03 12.2 °C 11.4 °C 1021.9 hPa Calm     95% 0.0 mm 0 W/m2
20:08 12.1 °C 11.3 °C 1021.6 hPa Calm     95% 0.0 mm 0 W/m2
20:13 12.0 °C 11.2 °C 1021.9 hPa Calm     95% 0.0 mm 0 W/m2
20:18 11.8 °C 11.2 °C 1021.6 hPa Calm     96% 0.0 mm 0 W/m2
20:23 11.8 °C 11.3 °C 1021.6 hPa Calm     97% 0.0 mm 0 W/m2
20:28 11.7 °C 11.2 °C 1021.6 hPa Calm     97% 0.0 mm 0 W/m2
20:33 11.7 °C 11.2 °C 1021.6 hPa Calm     97% 0.0 mm 0 W/m2
20:38 11.6 °C 11.2 °C 1021.6 hPa Calm     97% 0.0 mm 0 W/m2
20:43 11.6 °C 11.3 °C 1021.6 hPa Calm     98% 0.0 mm 0 W/m2
20:48 11.5 °C 11.2 °C 1021.6 hPa Calm     98% 0.0 mm 0 W/m2
20:53 11.4 °C 11.1 °C 1021.6 hPa Calm     98% 0.0 mm 0 W/m2
20:58 11.4 °C 11.1 °C 1021.6 hPa Calm     98% 0.0 mm 0 W/m2
21:03 11.3 °C 11.0 °C 1021.6 hPa Calm     98% 0.0 mm 0 W/m2
21:08 11.2 °C 10.9 °C 1021.6 hPa Calm     98% 0.0 mm 0 W/m2
21:13 11.2 °C 10.9 °C 1021.6 hPa Calm     98% 0.0 mm 0 W/m2
21:18 11.2 °C 10.9 °C 1021.6 hPa Calm     98% 0.0 mm 0 W/m2
21:23 11.2 °C 10.9 °C 1021.6 hPa Calm     98% 0.0 mm 0 W/m2
21:28 11.0 °C 10.7 °C 1021.2 hPa Calm     98% 0.0 mm 0 W/m2
21:33 11.0 °C 10.7 °C 1021.6 hPa Calm     98% 0.0 mm 0 W/m2
21:38 10.9 °C 10.8 °C 1021.6 hPa Calm     99% 0.0 mm 0 W/m2
21:43 10.8 °C 10.7 °C 1021.6 hPa Calm     99% 0.0 mm 0 W/m2
21:48 10.7 °C 10.6 °C 1021.6 hPa Calm     99% 0.0 mm 0 W/m2
21:53 10.6 °C 10.4 °C 1021.6 hPa Calm     99% 0.0 mm 0 W/m2
21:58 10.6 °C 10.4 °C 1021.6 hPa Calm     99% 0.0 mm 0 W/m2
22:03 10.5 °C 10.3 °C 1021.2 hPa Calm     99% 0.0 mm 0 W/m2
22:08 10.5 °C 10.3 °C 1021.2 hPa Calm   1.1 km/h 99% 0.0 mm 0 W/m2
22:13 10.4 °C 10.3 °C 1021.2 hPa Calm   1.1 km/h 99% 0.0 mm 0 W/m2
22:18 10.3 °C 10.2 °C 1021.2 hPa Calm     99% 0.0 mm 0 W/m2
22:23 10.3 °C 10.2 °C 1021.2 hPa Calm     99% 0.0 mm 0 W/m2
22:28 10.3 °C 10.2 °C 1021.2 hPa Calm     99% 0.0 mm 0 W/m2
22:33 10.1 °C 9.9 °C 1020.9 hPa Calm     99% 0.0 mm 0 W/m2
22:38 10.1 °C 9.9 °C 1021.2 hPa Calm     99% 0.0 mm 0 W/m2
22:43 10.0 °C 9.8 °C 1021.2 hPa Calm     99% 0.0 mm 0 W/m2
22:48 9.9 °C 9.8 °C 1020.9 hPa Calm     99% 0.0 mm 0 W/m2
22:53 9.9 °C 9.8 °C 1020.9 hPa Calm     99% 0.0 mm 0 W/m2
22:58 9.9 °C 9.8 °C 1020.9 hPa Calm     99% 0.0 mm 0 W/m2
23:03 9.9 °C 9.8 °C 1020.9 hPa Calm     99% 0.0 mm 0 W/m2
23:08 9.9 °C 9.8 °C 1020.9 hPa Calm     99% 0.0 mm 0 W/m2
23:13 9.8 °C 9.7 °C 1020.9 hPa Calm     99% 0.0 mm 0 W/m2
23:18 9.8 °C 9.7 °C 1020.9 hPa Calm     99% 0.0 mm 0 W/m2
23:23 9.8 °C 9.7 °C 1020.9 hPa Calm     99% 0.0 mm 0 W/m2
23:41 9.9 °C 9.8 °C 1020.5 hPa Calm     99% 0.0 mm 0 W/m2
23:46 10.0 °C 9.8 °C 1020.5 hPa Calm     99% 0.0 mm 0 W/m2
23:51 10.0 °C 9.8 °C 1020.5 hPa Calm     99% 0.0 mm 0 W/m2
23:56 10.0 °C 9.8 °C 1020.5 hPa Calm     99% 0.0 mm 0 W/m2
Northern Hawkes Bay. New Zealand Historic Data
Compliments of Weather Underground - 2 mb